createdAt,value
2018-04-16T00:01:41.796Z,15.40
2018-04-16T00:04:07.727Z,16.17
2018-04-16T00:06:33.637Z,16.70
2018-04-16T00:08:59.608Z,16.50
2018-04-16T00:11:25.877Z,17.47
2018-04-16T00:13:51.772Z,16.50
2018-04-16T00:16:17.740Z,17.67
2018-04-16T00:18:43.612Z,17.73
2018-04-16T00:21:09.472Z,17.80
2018-04-16T00:23:35.479Z,16.97
2018-04-16T00:26:01.433Z,18.67
2018-04-16T00:28:27.467Z,18.30
2018-04-16T00:30:53.407Z,18.10
2018-04-16T00:33:25.371Z,18.03
2018-04-16T00:35:57.570Z,18.23
2018-04-16T00:38:29.450Z,17.97
2018-04-16T00:41:01.720Z,17.03
2018-04-16T00:43:33.743Z,17.90
2018-04-16T00:46:05.860Z,18.43
2018-04-16T00:48:37.900Z,19.37
2018-04-16T00:51:10.128Z,19.57
2018-04-16T00:53:54.590Z,18.23
2018-04-16T00:56:26.898Z,18.53
2018-04-16T00:58:58.791Z,21.10
2018-04-16T01:01:30.920Z,21.00
2018-04-16T01:04:02.874Z,18.40
2018-04-16T01:06:34.980Z,19.00
2018-04-16T01:09:06.815Z,18.70
2018-04-16T01:11:38.943Z,21.00
2018-04-16T01:14:10.887Z,20.53
2018-04-16T01:16:42.960Z,20.60
2018-04-16T01:19:15.009Z,19.43
2018-04-16T01:21:47.016Z,20.40
2018-04-16T01:24:18.989Z,20.97
2018-04-16T01:26:52.115Z,21.00
2018-04-16T01:29:24.139Z,20.87
2018-04-16T01:31:56.162Z,20.83
2018-04-16T01:34:28.100Z,20.43
2018-04-16T01:37:00.311Z,21.40
2018-04-16T01:39:32.335Z,21.73
2018-04-16T01:42:04.529Z,21.23
2018-04-16T01:44:36.564Z,21.47
2018-04-16T01:47:08.644Z,21.53
2018-04-16T01:49:40.659Z,21.27
2018-04-16T01:52:12.660Z,21.23
2018-04-16T01:54:45.617Z,21.07
2018-04-16T01:57:17.747Z,21.40
2018-04-16T01:59:49.888Z,23.33
2018-04-16T02:02:22.019Z,23.23
2018-04-16T02:04:54.001Z,21.50
2018-04-16T02:07:26.240Z,21.07
2018-04-16T02:09:58.076Z,22.60
2018-04-16T02:12:31.233Z,23.70
2018-04-16T02:15:03.180Z,23.23
2018-04-16T02:17:35.373Z,24.07
2018-04-16T02:20:07.419Z,23.00
2018-04-16T02:22:39.444Z,22.73
2018-04-16T02:25:11.443Z,22.43
2018-04-16T02:27:43.604Z,23.07
2018-04-16T02:30:15.591Z,24.67
2018-04-16T02:32:47.742Z,23.87
2018-04-16T02:35:20.793Z,21.63
2018-04-16T02:37:53.008Z,23.77
2018-04-16T02:40:24.901Z,24.40
2018-04-16T02:42:56.849Z,23.27
2018-04-16T02:45:28.829Z,25.03
2018-04-16T02:48:01.049Z,25.00
2018-04-16T02:50:33.904Z,21.60
2018-04-16T02:53:06.031Z,21.80
2018-04-16T02:55:38.184Z,23.50
2018-04-16T02:58:10.301Z,24.87
2018-04-16T03:00:42.545Z,24.73
2018-04-16T03:03:14.593Z,25.00
2018-04-16T03:05:46.544Z,23.93
2018-04-16T03:08:20.702Z,24.73
2018-04-16T03:10:52.946Z,23.10
2018-04-16T03:13:25.100Z,24.77
2018-04-16T03:15:57.103Z,23.23
2018-04-16T03:18:29.297Z,23.70
2018-04-16T03:21:01.292Z,24.23
2018-04-16T03:23:33.281Z,28.00
2018-04-16T03:26:05.300Z,27.00
2018-04-16T03:28:37.461Z,26.17
2018-04-16T03:31:09.402Z,25.97
2018-04-16T03:33:41.577Z,26.57
2018-04-16T03:36:13.644Z,26.13
2018-04-16T03:38:45.793Z,25.97
2018-04-16T03:41:17.930Z,26.40
2018-04-16T03:43:50.075Z,27.33
2018-04-16T03:49:32.265Z,27.90
2018-04-16T03:52:13.094Z,27.60
2018-04-16T03:54:39.112Z,25.50
2018-04-16T03:57:05.009Z,27.87
2018-04-16T03:59:30.959Z,24.63
2018-04-16T04:01:56.889Z,23.73
2018-04-16T04:04:22.866Z,25.23
2018-04-16T04:06:48.803Z,24.43
2018-04-16T04:09:14.724Z,25.33
2018-04-16T04:11:40.678Z,24.70
2018-04-16T04:14:06.553Z,25.80
2018-04-16T04:16:32.484Z,24.83
2018-04-16T04:18:58.424Z,24.20
2018-04-16T04:21:24.308Z,25.50
2018-04-16T04:24:03.407Z,25.47
2018-04-16T04:26:41.715Z,25.53
2018-04-16T04:29:20.119Z,23.87
2018-04-16T04:31:46.021Z,26.33
2018-04-16T04:34:11.984Z,25.87
2018-04-16T04:36:37.892Z,25.93
2018-04-16T04:39:03.755Z,27.23
2018-04-16T04:41:29.680Z,24.73
2018-04-16T04:43:56.420Z,25.60
2018-04-16T04:46:22.360Z,26.63
2018-04-16T04:48:48.226Z,25.33
2018-04-16T04:51:14.143Z,27.23
2018-04-16T04:53:40.064Z,26.50
2018-04-16T04:56:05.958Z,25.07
2018-04-16T04:58:31.985Z,26.30
2018-04-16T05:00:57.853Z,25.50
2018-04-16T05:03:23.724Z,26.00
2018-04-16T05:05:49.756Z,27.17
2018-04-16T05:08:15.743Z,25.63
2018-04-16T05:10:41.691Z,26.73
2018-04-16T05:13:07.695Z,27.60
2018-04-16T05:15:33.985Z,27.67
2018-04-16T05:17:59.852Z,27.87
2018-04-16T05:20:25.803Z,27.30
2018-04-16T05:22:51.680Z,27.33
2018-04-16T05:25:17.552Z,27.93
2018-04-16T05:27:43.512Z,28.63
2018-04-16T05:30:09.442Z,29.30
2018-04-16T05:32:35.377Z,28.47
2018-04-16T05:35:01.288Z,28.90
2018-04-16T05:37:27.174Z,28.57
2018-04-16T05:39:53.048Z,27.97
2018-04-16T05:42:18.984Z,29.83
2018-04-16T05:44:44.844Z,30.13
2018-04-16T05:47:10.713Z,30.47
2018-04-16T05:49:36.632Z,27.87
2018-04-16T05:52:02.539Z,28.30
2018-04-16T05:54:28.443Z,28.30
2018-04-16T05:56:54.374Z,28.00
2018-04-16T05:59:20.251Z,29.77
2018-04-16T06:01:46.122Z,29.30
2018-04-16T06:04:12.044Z,30.47
2018-04-16T06:06:37.962Z,30.97
2018-04-16T06:09:04.839Z,28.77
2018-04-16T06:11:30.852Z,30.57
2018-04-16T06:13:56.741Z,28.37
2018-04-16T06:16:22.651Z,28.97
2018-04-16T06:18:48.571Z,28.67
2018-04-16T06:21:14.424Z,28.40
2018-04-16T06:23:40.372Z,28.90
2018-04-16T06:26:06.295Z,30.83
2018-04-16T06:28:32.995Z,31.27
2018-04-16T06:30:58.863Z,29.93
2018-04-16T06:33:24.801Z,32.50
2018-04-16T06:35:50.716Z,32.73
2018-04-16T06:38:16.698Z,32.53
2018-04-16T06:40:42.903Z,29.33
2018-04-16T06:43:08.779Z,31.80
2018-04-16T06:45:34.676Z,31.13
2018-04-16T06:48:00.588Z,31.80
2018-04-16T06:50:26.451Z,30.93
2018-04-16T06:52:52.303Z,31.97
2018-04-16T06:55:18.217Z,32.87
2018-04-16T06:57:44.134Z,32.63
2018-04-16T07:00:10.057Z,31.87
2018-04-16T07:02:35.955Z,32.93
2018-04-16T07:05:01.872Z,35.20
2018-04-16T07:07:27.891Z,31.27
2018-04-16T07:09:53.867Z,31.07
2018-04-16T07:12:19.940Z,33.13
2018-04-16T07:14:45.795Z,33.97
2018-04-16T07:17:11.709Z,33.30
2018-04-16T07:19:37.807Z,34.53
2018-04-16T07:22:03.686Z,35.63
2018-04-16T07:24:29.707Z,30.43
2018-04-16T07:26:55.616Z,32.73
2018-04-16T07:29:21.487Z,34.37
2018-04-16T07:31:47.815Z,33.87
2018-04-16T07:34:13.679Z,37.27
2018-04-16T07:36:39.648Z,38.37
2018-04-16T07:39:05.547Z,37.77
2018-04-16T07:41:31.418Z,37.03
2018-04-16T07:43:57.641Z,40.10
2018-04-16T07:46:23.590Z,39.83
2018-04-16T07:48:49.541Z,40.23
2018-04-16T07:51:15.489Z,41.03
2018-04-16T07:53:41.895Z,39.10
2018-04-16T07:56:07.772Z,38.40
2018-04-16T07:58:33.823Z,39.63
2018-04-16T08:00:59.811Z,39.30
2018-04-16T08:03:25.668Z,42.13
2018-04-16T08:05:51.534Z,42.07
2018-04-16T08:08:17.488Z,41.77
2018-04-16T08:10:43.370Z,38.53
2018-04-16T08:13:09.319Z,38.97
2018-04-16T08:15:35.231Z,38.47
2018-04-16T08:18:01.081Z,39.13
2018-04-16T08:20:26.948Z,39.97
2018-04-16T08:22:53.069Z,37.23
2018-04-16T08:25:19.031Z,37.50
2018-04-16T08:27:44.883Z,37.03
2018-04-16T08:30:10.791Z,39.33
2018-04-16T08:32:36.643Z,39.23
2018-04-16T08:35:02.520Z,39.10
2018-04-16T08:37:28.536Z,39.37
2018-04-16T08:39:54.406Z,39.57
2018-04-16T08:42:20.265Z,38.03
2018-04-16T08:44:46.544Z,37.37
2018-04-16T08:47:12.396Z,39.33
2018-04-16T08:49:38.360Z,39.20
2018-04-16T08:52:04.283Z,37.93
2018-04-16T08:54:30.157Z,35.73
2018-04-16T08:56:56.069Z,33.70
2018-04-16T08:59:21.999Z,33.90
2018-04-16T09:01:47.985Z,38.00
2018-04-16T09:04:13.859Z,36.07
2018-04-16T09:06:43.782Z,36.20
2018-04-16T09:09:09.648Z,39.73
2018-04-16T09:11:35.562Z,36.23
2018-04-16T09:14:01.563Z,35.50
2018-04-16T09:16:27.445Z,37.23
2018-04-16T09:18:53.304Z,33.47
2018-04-16T09:21:21.301Z,34.50
2018-04-16T09:23:47.170Z,37.40
2018-04-16T09:26:13.125Z,37.60
2018-04-16T09:28:40.120Z,35.97
2018-04-16T09:31:05.993Z,34.37
2018-04-16T09:33:31.929Z,39.53
2018-04-16T09:35:57.892Z,37.07
2018-04-16T09:38:23.869Z,38.40
2018-04-16T09:40:49.735Z,39.33
2018-04-16T09:43:15.636Z,34.80
2018-04-16T09:45:41.489Z,34.67
2018-04-16T09:48:07.430Z,34.37
2018-04-16T09:50:33.440Z,35.37
2018-04-16T09:52:59.288Z,34.77
2018-04-16T09:55:25.152Z,33.70
2018-04-16T09:57:51.051Z,35.70
2018-04-16T10:00:17.009Z,33.50
2018-04-16T10:02:49.868Z,33.63
2018-04-16T10:05:15.779Z,35.83
2018-04-16T10:07:41.635Z,38.60
2018-04-16T10:10:07.560Z,34.70
2018-04-16T10:12:33.466Z,34.80
2018-04-16T10:14:59.560Z,38.63
2018-04-16T10:17:25.429Z,34.97
2018-04-16T10:19:52.778Z,35.43
2018-04-16T10:22:18.644Z,36.90
2018-04-16T10:24:44.500Z,32.90
2018-04-16T10:27:10.515Z,35.47
2018-04-16T10:29:36.371Z,36.77
2018-04-16T10:32:02.235Z,34.07
2018-04-16T10:34:28.162Z,34.63
2018-04-16T10:36:54.047Z,37.87
2018-04-16T10:39:20.010Z,35.83
2018-04-16T10:41:46.775Z,35.77
2018-04-16T10:44:12.672Z,35.93
2018-04-16T10:46:38.548Z,34.17
2018-04-16T10:49:04.460Z,34.97
2018-04-16T10:51:30.424Z,35.43
2018-04-16T10:53:56.329Z,30.73
2018-04-16T10:56:22.308Z,33.23
2018-04-16T10:58:48.210Z,37.23
2018-04-16T11:01:14.092Z,33.50
2018-04-16T11:03:40.115Z,37.00
2018-04-16T11:06:05.992Z,34.23
2018-04-16T11:08:31.944Z,31.27
2018-04-16T11:10:57.871Z,30.57
2018-04-16T11:13:23.765Z,29.63
2018-04-16T11:15:49.834Z,30.57
2018-04-16T11:18:15.762Z,31.47
2018-04-16T11:20:41.644Z,28.97
2018-04-16T11:23:07.520Z,28.87
2018-04-16T11:25:33.448Z,30.57
2018-04-16T11:27:59.426Z,29.40
2018-04-16T11:30:26.381Z,30.70
2018-04-16T11:32:52.820Z,30.20
2018-04-16T11:35:18.672Z,27.07
2018-04-16T11:37:44.565Z,27.03
2018-04-16T11:40:10.585Z,25.30
2018-04-16T11:42:36.481Z,22.70
2018-04-16T11:45:02.364Z,24.50
2018-04-16T11:47:28.292Z,24.37
2018-04-16T11:49:54.152Z,24.27
2018-04-16T11:52:20.957Z,22.73
2018-04-16T11:54:46.871Z,22.93
2018-04-16T11:57:12.738Z,22.23
2018-04-16T11:59:38.624Z,21.83
2018-04-16T12:02:04.560Z,21.23
2018-04-16T12:04:30.608Z,20.87
2018-04-16T12:06:56.483Z,19.90
2018-04-16T12:09:22.388Z,19.77
2018-04-16T12:11:48.247Z,19.00
2018-04-16T12:14:14.135Z,19.60
2018-04-16T12:16:40.149Z,18.87
2018-04-16T12:19:06.048Z,18.80
2018-04-16T12:21:31.982Z,18.77
2018-04-16T12:23:57.903Z,17.97
2018-04-16T12:26:23.773Z,17.37
2018-04-16T12:28:49.780Z,17.53
2018-04-16T12:31:15.692Z,18.00
2018-04-16T12:33:41.549Z,18.90
2018-04-16T12:36:07.429Z,18.53
2018-04-16T12:38:33.330Z,18.63
2018-04-16T12:40:59.322Z,18.87
2018-04-16T12:43:25.203Z,20.40
2018-04-16T12:45:51.128Z,20.77
2018-04-16T12:48:16.995Z,20.93
2018-04-16T12:50:42.855Z,22.17
2018-04-16T12:53:08.880Z,21.23
2018-04-16T12:55:35.694Z,21.00
2018-04-16T12:58:01.572Z,21.17
2018-04-16T13:00:27.508Z,22.23
2018-04-16T13:02:53.392Z,21.93
2018-04-16T13:05:19.360Z,20.70
2018-04-16T13:07:45.307Z,19.83
2018-04-16T13:10:11.214Z,18.07
2018-04-16T13:12:37.156Z,17.43
2018-04-16T13:15:03.115Z,20.37
2018-04-16T13:17:29.229Z,18.77
2018-04-16T13:19:55.144Z,18.00
2018-04-16T13:22:21.047Z,18.50
2018-04-16T13:24:46.915Z,19.50
2018-04-16T13:27:12.777Z,21.00
2018-04-16T13:29:38.828Z,20.73
2018-04-16T13:32:04.729Z,22.80
2018-04-16T13:34:30.595Z,20.93
2018-04-16T13:36:56.506Z,20.27
2018-04-16T13:39:22.382Z,20.77
2018-04-16T13:41:48.340Z,22.53
2018-04-16T13:44:14.275Z,21.93
2018-04-16T13:46:40.140Z,22.17
2018-04-16T13:49:07.466Z,22.10
2018-04-16T13:51:33.380Z,22.83
2018-04-16T13:53:59.415Z,23.33
2018-04-16T13:56:25.295Z,24.53
2018-04-16T13:58:51.200Z,24.40
2018-04-16T14:01:17.072Z,24.97
2018-04-16T14:03:42.947Z,24.93
2018-04-16T14:06:09.011Z,25.27
2018-04-16T14:08:34.870Z,25.07
2018-04-16T14:11:00.749Z,26.30
2018-04-16T14:13:26.688Z,26.67
2018-04-16T14:15:52.566Z,26.33
2018-04-16T14:18:18.500Z,28.30
2018-04-16T14:20:44.419Z,27.47
2018-04-16T14:23:10.293Z,27.90
2018-04-16T14:25:36.172Z,28.13
2018-04-16T14:28:02.100Z,29.13
2018-04-16T14:30:28.085Z,29.07
2018-04-16T14:32:53.947Z,31.17
2018-04-16T14:35:19.867Z,32.37
2018-04-16T14:37:45.727Z,31.30
2018-04-16T14:40:11.695Z,30.90
2018-04-16T14:42:37.699Z,32.27
2018-04-16T14:45:03.581Z,34.50
2018-04-16T14:47:29.491Z,35.27
2018-04-16T14:49:55.688Z,36.90
2018-04-16T14:52:21.560Z,36.87
2018-04-16T14:54:47.551Z,36.83
2018-04-16T14:57:13.473Z,36.97
2018-04-16T14:59:39.340Z,37.60
2018-04-16T15:02:05.214Z,37.03
2018-04-16T15:04:31.131Z,39.17
2018-04-16T15:06:57.116Z,39.47
2018-04-16T15:09:23.029Z,39.73
2018-04-16T15:11:48.953Z,38.77
2018-04-16T15:14:14.823Z,38.73
2018-04-16T15:16:40.693Z,39.17
2018-04-16T15:19:06.703Z,40.00
2018-04-16T15:21:32.577Z,40.63
2018-04-16T15:23:59.515Z,42.33
2018-04-16T15:26:25.419Z,41.47
2018-04-16T15:28:51.563Z,44.33
2018-04-16T15:31:17.599Z,42.83
2018-04-16T15:33:43.492Z,44.60
2018-04-16T15:36:09.378Z,41.53
2018-04-16T15:38:35.237Z,43.93
2018-04-16T15:41:01.143Z,43.73
2018-04-16T15:43:27.095Z,44.80
2018-04-16T15:45:53.040Z,41.40
2018-04-16T15:48:18.967Z,43.83
2018-04-16T15:50:44.836Z,47.00
2018-04-16T15:53:10.703Z,46.83
2018-04-16T15:55:37.059Z,48.87
2018-04-16T15:58:03.018Z,50.50
2018-04-16T16:00:28.882Z,49.33
2018-04-16T16:02:54.775Z,50.43
2018-04-16T16:05:20.653Z,49.00
2018-04-16T16:07:46.627Z,49.23
2018-04-16T16:10:12.606Z,54.03
2018-04-16T16:12:39.026Z,52.87
2018-04-16T16:15:04.976Z,50.80
2018-04-16T16:17:30.886Z,51.10
2018-04-16T16:19:56.839Z,56.73
2018-04-16T16:22:22.765Z,52.67
2018-04-16T16:24:48.683Z,53.73
2018-04-16T16:27:14.701Z,53.73
2018-04-16T16:29:40.619Z,52.00
2018-04-16T16:32:06.629Z,54.37
2018-04-16T16:34:32.550Z,53.03
2018-04-16T16:36:58.428Z,53.50
2018-04-16T16:39:24.340Z,58.90
2018-04-16T16:41:50.273Z,54.57
2018-04-16T16:44:16.591Z,53.57
2018-04-16T16:46:42.541Z,54.40
2018-04-16T16:49:08.412Z,52.60
2018-04-16T16:51:34.289Z,59.50
2018-04-16T16:54:00.285Z,61.17
2018-04-16T16:56:26.199Z,59.13
2018-04-16T16:58:52.132Z,60.37
2018-04-16T17:01:18.290Z,57.80
2018-04-16T17:03:44.165Z,56.30
2018-04-16T17:06:10.056Z,58.33
2018-04-16T17:08:36.068Z,59.00
2018-04-16T17:11:01.991Z,60.07
2018-04-16T17:13:27.852Z,60.50
2018-04-16T17:15:53.759Z,61.30
2018-04-16T17:18:19.616Z,59.67
2018-04-16T17:20:45.636Z,59.73
2018-04-16T17:23:11.555Z,64.43
2018-04-16T17:25:37.439Z,62.93
2018-04-16T17:28:03.345Z,62.73
2018-04-16T17:30:29.472Z,59.50
2018-04-16T17:32:55.466Z,58.93
2018-04-16T17:35:21.334Z,60.17
2018-04-16T17:37:47.261Z,61.33
2018-04-16T17:40:13.123Z,61.03
2018-04-16T17:42:38.995Z,60.17
2018-04-16T17:45:05.400Z,61.97
2018-04-16T17:47:31.264Z,60.83
2018-04-16T17:49:57.127Z,59.73
2018-04-16T17:52:23.058Z,64.37
2018-04-16T17:54:48.936Z,64.13
2018-04-16T17:57:14.887Z,59.17
2018-04-16T17:59:40.805Z,65.20
2018-04-16T18:02:06.684Z,63.83
2018-04-16T18:04:32.609Z,64.07
2018-04-16T18:06:58.512Z,66.07
2018-04-16T18:09:24.503Z,64.30
2018-04-16T18:11:50.360Z,67.13
2018-04-16T18:14:16.303Z,64.47
2018-04-16T18:16:42.176Z,64.10
2018-04-16T18:19:08.057Z,64.63
2018-04-16T18:21:34.067Z,67.83
2018-04-16T18:23:59.980Z,64.30
2018-04-16T18:26:25.862Z,65.43
2018-04-16T18:28:51.776Z,64.53
2018-04-16T18:31:17.637Z,66.43
2018-04-16T18:33:43.619Z,64.63
2018-04-16T18:36:09.557Z,70.20
2018-04-16T18:38:35.496Z,67.43
2018-04-16T18:41:01.435Z,64.40
2018-04-16T18:43:27.359Z,57.17
2018-04-16T18:45:53.349Z,67.57
2018-04-16T18:48:19.232Z,67.53
2018-04-16T18:50:45.150Z,69.53
2018-04-16T18:53:11.032Z,67.73
2018-04-16T18:55:36.895Z,68.53
2018-04-16T18:58:02.832Z,67.13
2018-04-16T19:00:28.751Z,68.23
2018-04-16T19:02:54.641Z,71.83
2018-04-16T19:05:20.566Z,57.73
2018-04-16T19:07:46.460Z,68.10
2018-04-16T19:10:12.357Z,63.23
2018-04-16T19:12:38.292Z,54.50
2018-04-16T19:15:04.271Z,58.70
2018-04-16T19:17:30.160Z,59.30
2018-04-16T19:19:56.072Z,63.03
2018-04-16T19:22:22.031Z,59.63
2018-04-16T19:24:47.911Z,66.00
2018-04-16T19:27:20.678Z,66.27
2018-04-16T19:29:46.565Z,68.10
2018-04-16T19:32:12.441Z,63.57
2018-04-16T19:34:44.449Z,56.03
2018-04-16T19:37:10.329Z,61.20
2018-04-16T19:39:36.217Z,60.47
2018-04-16T19:42:08.324Z,62.03
2018-04-16T19:44:34.198Z,60.20
2018-04-16T19:47:00.828Z,63.50
2018-04-16T19:49:32.852Z,71.57
2018-04-16T19:51:58.720Z,62.17
2018-04-16T19:54:24.989Z,64.60
2018-04-16T19:56:56.956Z,59.93
2018-04-16T19:59:23.390Z,57.90
2018-04-16T20:01:55.545Z,60.37
2018-04-16T20:04:21.640Z,60.07
2018-04-16T20:06:47.506Z,65.47
2018-04-16T20:09:13.389Z,66.77
2018-04-16T20:11:39.478Z,74.47
2018-04-16T20:14:05.648Z,67.00
2018-04-16T20:16:31.520Z,64.27
2018-04-16T20:18:58.660Z,73.03
2018-04-16T20:21:24.581Z,76.70
2018-04-16T20:23:50.568Z,72.37
2018-04-16T20:26:16.498Z,69.83
2018-04-16T20:28:42.379Z,68.20
2018-04-16T20:31:08.666Z,70.80
2018-04-16T20:33:34.563Z,72.83
2018-04-16T20:36:01.118Z,67.23
2018-04-16T20:38:26.996Z,69.53
2018-04-16T20:40:52.971Z,74.23
2018-04-16T20:43:18.826Z,71.77
2018-04-16T20:45:44.704Z,72.73
2018-04-16T20:48:10.711Z,73.43
2018-04-16T20:50:36.589Z,75.00
2018-04-16T20:53:02.444Z,72.07
2018-04-16T20:55:28.378Z,67.10
2018-04-16T20:57:54.274Z,70.87
2018-04-16T21:00:21.065Z,69.90
2018-04-16T21:02:46.985Z,69.30
2018-04-16T21:05:12.855Z,70.20
2018-04-16T21:07:38.748Z,65.77
2018-04-16T21:10:04.687Z,64.23
2018-04-16T21:12:30.760Z,62.43
2018-04-16T21:14:56.628Z,62.40
2018-04-16T21:17:22.640Z,63.20
2018-04-16T21:19:48.508Z,61.90
2018-04-16T21:22:14.426Z,58.13
2018-04-16T21:24:40.448Z,61.00
2018-04-16T21:27:06.348Z,58.53
2018-04-16T21:29:32.224Z,59.33
2018-04-16T21:31:58.570Z,55.10
2018-04-16T21:34:24.859Z,55.87
2018-04-16T21:36:51.195Z,56.13
2018-04-16T21:39:17.144Z,57.53
2018-04-16T21:41:43.119Z,54.70
2018-04-16T21:44:09.389Z,54.47
2018-04-16T21:46:35.628Z,54.57
2018-04-16T21:49:01.906Z,55.30
2018-04-16T21:51:28.245Z,56.37
2018-04-16T21:53:54.316Z,56.23
2018-04-16T21:56:20.765Z,56.57
2018-04-16T21:58:46.754Z,59.80
2018-04-16T22:01:13.371Z,56.53
2018-04-16T22:03:39.376Z,57.37
2018-04-16T22:06:05.388Z,57.37
2018-04-16T22:08:31.756Z,55.73
2018-04-16T22:10:58.193Z,51.33
2018-04-16T22:13:24.183Z,48.37
2018-04-16T22:15:50.183Z,51.10
2018-04-16T22:18:16.196Z,53.37
2018-04-16T22:20:42.220Z,55.83
2018-04-16T22:23:08.719Z,55.20
2018-04-16T22:25:35.099Z,52.67
2018-04-16T22:28:00.992Z,43.87
2018-04-16T22:30:26.920Z,44.83
2018-04-16T22:32:52.893Z,56.43
2018-04-16T22:35:18.766Z,43.40
2018-04-16T22:37:45.160Z,49.30
2018-04-16T22:40:11.049Z,50.07
2018-04-16T22:42:37.026Z,54.90
2018-04-16T22:45:02.959Z,58.67
2018-04-16T22:47:28.857Z,60.80
2018-04-16T22:49:54.812Z,63.60
2018-04-16T22:52:20.752Z,58.27
2018-04-16T22:54:46.700Z,54.60
2018-04-16T22:57:12.571Z,57.00
2018-04-16T22:59:38.495Z,53.47
2018-04-16T23:02:04.482Z,47.87
2018-04-16T23:04:30.384Z,49.67
2018-04-16T23:06:56.624Z,58.33
2018-04-16T23:09:22.575Z,57.47
2018-04-16T23:11:48.480Z,57.87
2018-04-16T23:14:14.484Z,48.87
2018-04-16T23:16:41.233Z,45.93
2018-04-16T23:19:07.117Z,51.60
2018-04-16T23:21:33.035Z,56.83
2018-04-16T23:23:59.011Z,44.27
2018-04-16T23:26:25.011Z,43.73
2018-04-16T23:28:50.911Z,51.13
2018-04-16T23:31:17.671Z,54.33
2018-04-16T23:33:43.564Z,44.03
2018-04-16T23:36:09.587Z,47.97
2018-04-16T23:38:36.307Z,59.70
2018-04-16T23:41:02.195Z,61.97
2018-04-16T23:43:28.156Z,67.73
2018-04-16T23:45:54.053Z,62.57
2018-04-16T23:48:19.936Z,65.27
2018-04-16T23:50:45.972Z,66.23
2018-04-16T23:53:11.843Z,63.87
2018-04-16T23:55:37.769Z,66.97
2018-04-16T23:58:03.692Z,59.80
